Terminal Aerodrome Forecast
Issued by NWS

Home | Current Version | Previous Version | Text Only | Print | Product List | Glossary Off
Versions: 1 2 3 4 5 6 7 8 9 10 11 12 13 14

000
FTUS41 KCLE 241100
TAFFDY
TAF
KFDY 241132Z 2412/2512 18008KT P6SM BKN250
     FM241700 18008KT P6SM BKN120 OVC250
     FM250000 18010KT P6SM SCT120 OVC250=

USA.gov is the U.S. government's official web portal to all federal, state and local government web resources and services.